createdAt,value
2019-03-20T00:00:47.183Z,1.00
2019-03-20T00:03:16.137Z,0.90
2019-03-20T00:05:45.142Z,0.90
2019-03-20T00:08:14.034Z,0.90
2019-03-20T00:10:42.964Z,1.00
2019-03-20T00:13:11.939Z,0.90
2019-03-20T00:15:40.854Z,0.90
2019-03-20T00:18:09.856Z,0.90
2019-03-20T00:20:38.846Z,0.80
2019-03-20T00:23:07.765Z,0.90
2019-03-20T00:25:37.013Z,0.80
2019-03-20T00:28:06.030Z,0.80
2019-03-20T00:30:35.054Z,0.80
2019-03-20T00:33:04.061Z,0.80
2019-03-20T00:35:33.202Z,0.70
2019-03-20T00:38:02.197Z,0.70
2019-03-20T00:40:31.234Z,0.70
2019-03-20T00:43:00.234Z,0.70
2019-03-20T00:45:29.321Z,0.70
2019-03-20T00:47:58.251Z,0.60
2019-03-20T00:50:27.258Z,0.60
2019-03-20T00:52:56.198Z,0.50
2019-03-20T00:55:25.192Z,0.50
2019-03-20T00:57:54.110Z,0.50
2019-03-20T01:00:23.195Z,0.60
2019-03-20T01:02:52.124Z,0.50
2019-03-20T01:05:21.802Z,0.50
2019-03-20T01:07:50.885Z,0.60
2019-03-20T01:10:19.882Z,0.60
2019-03-20T01:12:48.881Z,0.50
2019-03-20T01:15:17.950Z,0.50
2019-03-20T01:17:47.046Z,0.50
2019-03-20T01:20:17.122Z,0.50
2019-03-20T01:22:46.219Z,0.50
2019-03-20T01:25:15.926Z,0.50
2019-03-20T01:27:44.929Z,0.40
2019-03-20T01:30:31.544Z,0.50
2019-03-20T01:33:02.054Z,0.40
2019-03-20T01:35:31.050Z,0.30
2019-03-20T01:37:59.915Z,0.40
2019-03-20T01:40:28.901Z,0.30
2019-03-20T01:42:57.748Z,0.30
2019-03-20T01:45:26.747Z,0.30
2019-03-20T01:47:56.155Z,0.20
2019-03-20T01:50:25.065Z,0.20
2019-03-20T01:52:54.078Z,0.20
2019-03-20T01:55:23.082Z,0.30
2019-03-20T01:57:51.990Z,0.30
2019-03-20T02:00:21.015Z,0.20
2019-03-20T02:02:50.006Z,0.30
2019-03-20T02:05:18.999Z,0.30
2019-03-20T02:07:47.938Z,0.20
2019-03-20T02:10:17.045Z,0.20
2019-03-20T02:12:46.029Z,0.20
2019-03-20T02:15:15.839Z,0.10
2019-03-20T02:17:44.829Z,0.20
2019-03-20T02:20:15.654Z,0.20
2019-03-20T02:22:44.686Z,0.20
2019-03-20T02:25:14.339Z,0.10
2019-03-20T02:27:43.337Z,0.20
2019-03-20T02:30:14.817Z,0.10
2019-03-20T02:32:43.886Z,0.10
2019-03-20T02:35:13.285Z,0.10
2019-03-20T02:37:42.379Z,0.10
2019-03-20T02:40:11.539Z,0.10
2019-03-20T02:42:40.526Z,0.10
2019-03-20T02:45:11.515Z,0.10
2019-03-20T02:47:40.507Z,0.00
2019-03-20T02:50:09.717Z,0.10
2019-03-20T02:52:38.728Z,0.10
2019-03-20T02:55:08.241Z,0.10
2019-03-20T02:57:37.291Z,0.10
2019-03-20T03:00:07.887Z,0.10
2019-03-20T03:02:36.928Z,0.00
2019-03-20T03:05:06.063Z,0.00
2019-03-20T03:07:35.096Z,0.00
2019-03-20T03:10:04.943Z,0.10
2019-03-20T03:12:33.873Z,0.00
2019-03-20T03:15:05.059Z,0.00
2019-03-20T03:17:33.996Z,0.00
2019-03-20T03:20:04.535Z,-0.10
2019-03-20T03:22:33.466Z,-0.10
2019-03-20T03:25:02.465Z,0.00
2019-03-20T03:27:31.319Z,-0.10
2019-03-20T03:30:00.666Z,-0.10
2019-03-20T03:32:29.699Z,-0.20
2019-03-20T03:34:58.619Z,-0.10
2019-03-20T03:37:27.644Z,-0.10
2019-03-20T03:39:56.638Z,-0.10
2019-03-20T03:42:25.641Z,-0.10
2019-03-20T03:44:54.750Z,-0.20
2019-03-20T03:47:23.607Z,-0.20
2019-03-20T03:49:52.593Z,-0.30
2019-03-20T03:52:21.594Z,-0.30
2019-03-20T03:54:50.537Z,-0.30
2019-03-20T03:57:19.546Z,-0.20
2019-03-20T03:59:48.555Z,-0.20
2019-03-20T04:02:17.841Z,-0.20
2019-03-20T04:04:46.964Z,-0.30
2019-03-20T04:07:15.951Z,-0.30
2019-03-20T04:09:44.898Z,-0.30
2019-03-20T04:12:14.533Z,-0.30
2019-03-20T04:14:43.467Z,-0.30
2019-03-20T04:17:22.177Z,-0.30
2019-03-20T04:19:51.527Z,-0.30
2019-03-20T04:22:20.372Z,-0.30
2019-03-20T04:24:49.299Z,-0.30
2019-03-20T04:27:18.326Z,-0.30
2019-03-20T04:29:47.336Z,-0.30
2019-03-20T04:32:16.276Z,-0.40
2019-03-20T04:34:45.311Z,-0.40
2019-03-20T04:37:14.234Z,-0.30
2019-03-20T04:39:43.077Z,-0.30
2019-03-20T04:42:12.104Z,-0.40
2019-03-20T04:44:41.446Z,-0.50
2019-03-20T04:47:10.332Z,-0.50
2019-03-20T04:49:39.333Z,-0.50
2019-03-20T04:52:08.258Z,-0.50
2019-03-20T04:54:37.182Z,-0.40
2019-03-20T04:57:06.430Z,-0.40
2019-03-20T04:59:35.277Z,-0.40
2019-03-20T05:02:04.311Z,-0.50
2019-03-20T05:04:33.344Z,-0.50
2019-03-20T05:07:02.270Z,-0.50
2019-03-20T05:09:31.192Z,-0.50
2019-03-20T05:12:00.252Z,-0.50
2019-03-20T05:14:29.158Z,-0.50
2019-03-20T05:16:58.159Z,-0.50
2019-03-20T05:19:27.030Z,-0.60
2019-03-20T05:21:55.879Z,-0.60
2019-03-20T05:24:25.119Z,-0.50
2019-03-20T05:26:54.099Z,-0.50
2019-03-20T05:29:23.025Z,-0.60
2019-03-20T05:31:52.022Z,-0.60
2019-03-20T05:34:21.226Z,-0.50
2019-03-20T05:36:50.615Z,-0.60
2019-03-20T05:39:19.456Z,-0.60
2019-03-20T05:41:48.687Z,-0.60
2019-03-20T05:44:17.734Z,-0.60
2019-03-20T05:46:46.734Z,-0.60
2019-03-20T05:49:15.690Z,-0.60
2019-03-20T05:51:44.610Z,-0.60
2019-03-20T05:54:13.471Z,-0.60
2019-03-20T05:56:42.414Z,-0.50
2019-03-20T05:59:11.410Z,-0.50
2019-03-20T06:01:40.523Z,-0.50
2019-03-20T06:04:09.475Z,-0.50
2019-03-20T06:06:38.397Z,-0.50
2019-03-20T06:09:08.038Z,-0.50
2019-03-20T06:11:41.430Z,-0.40
2019-03-20T06:14:10.665Z,-0.50
2019-03-20T06:16:42.548Z,-0.40
2019-03-20T06:19:13.777Z,-0.50
2019-03-20T06:21:42.893Z,-0.40
2019-03-20T06:24:11.782Z,-0.40
2019-03-20T06:26:40.662Z,-0.30
2019-03-20T06:29:09.583Z,-0.30
2019-03-20T06:31:38.514Z,-0.20
2019-03-20T06:34:07.768Z,-0.10
2019-03-20T06:36:36.693Z,-0.10
2019-03-20T06:39:07.449Z,-0.10
2019-03-20T06:41:36.384Z,0.00
2019-03-20T06:44:05.373Z,0.00
2019-03-20T06:46:34.374Z,0.00
2019-03-20T06:49:03.395Z,0.10
2019-03-20T06:51:32.494Z,0.60
2019-03-20T06:54:01.762Z,1.40
2019-03-20T06:56:30.693Z,2.20
2019-03-20T06:59:39.371Z,3.00
2019-03-20T07:02:08.470Z,3.70
2019-03-20T07:05:10.271Z,4.60
2019-03-20T07:07:43.913Z,5.30
2019-03-20T07:10:34.614Z,6.30
2019-03-20T07:13:03.647Z,6.90
2019-03-20T07:15:32.502Z,7.40
2019-03-20T07:18:01.447Z,7.90
2019-03-20T07:20:30.329Z,8.60
2019-03-20T07:22:59.491Z,9.20
2019-03-20T07:25:28.334Z,9.70
2019-03-20T07:27:57.283Z,10.30
2019-03-20T07:30:26.782Z,10.80
2019-03-20T07:32:55.786Z,11.50
2019-03-20T07:35:24.803Z,12.00
2019-03-20T07:37:56.363Z,12.50
2019-03-20T07:40:24.301Z,12.90
2019-03-20T07:42:53.236Z,13.40
2019-03-20T07:45:22.175Z,13.90
2019-03-20T07:47:51.017Z,14.40
2019-03-20T07:50:20.179Z,14.80
2019-03-20T07:52:49.615Z,15.20
2019-03-20T07:55:20.135Z,15.80
2019-03-20T07:57:49.482Z,16.20
2019-03-20T08:00:18.640Z,16.60
2019-03-20T08:02:47.605Z,17.00
2019-03-20T08:05:16.679Z,17.40
2019-03-20T08:07:45.513Z,18.10
2019-03-20T08:10:14.450Z,18.70
2019-03-20T08:12:43.389Z,18.80
2019-03-20T08:15:13.210Z,18.80
2019-03-20T08:17:42.235Z,19.20
2019-03-20T08:20:12.217Z,19.60
2019-03-20T08:22:41.146Z,19.90
2019-03-20T08:25:10.269Z,20.30
2019-03-20T08:27:39.201Z,20.60
2019-03-20T08:30:09.520Z,21.00
2019-03-20T08:32:38.542Z,21.60
2019-03-20T08:35:07.735Z,21.60
2019-03-20T08:37:37.047Z,21.80
2019-03-20T08:40:06.691Z,22.40
2019-03-20T08:42:35.704Z,22.40
2019-03-20T08:45:06.110Z,22.30
2019-03-20T08:47:35.033Z,22.70
2019-03-20T08:50:04.798Z,22.90
2019-03-20T08:52:33.658Z,23.70
2019-03-20T08:55:02.671Z,23.10
2019-03-20T08:57:31.703Z,22.20
2019-03-20T09:00:00.561Z,22.90
2019-03-20T09:02:29.502Z,23.60
2019-03-20T09:04:58.455Z,24.10
2019-03-20T09:07:29.349Z,24.20
2019-03-20T09:09:58.207Z,24.60
2019-03-20T09:12:27.146Z,24.70
2019-03-20T09:14:56.338Z,24.90
2019-03-20T09:17:25.194Z,25.30
2019-03-20T09:19:54.079Z,25.40
2019-03-20T09:22:23.422Z,25.70
2019-03-20T09:24:52.347Z,25.20
2019-03-20T09:27:21.294Z,25.50
2019-03-20T09:29:50.327Z,25.40
2019-03-20T09:32:19.253Z,25.00
2019-03-20T09:34:48.200Z,25.20
2019-03-20T09:37:17.210Z,25.00
2019-03-20T09:39:46.069Z,24.80
2019-03-20T09:42:15.191Z,25.30
2019-03-20T09:44:44.113Z,25.00
2019-03-20T09:47:13.044Z,24.80
2019-03-20T09:49:41.989Z,25.10
2019-03-20T09:52:10.990Z,25.10
2019-03-20T09:54:39.913Z,25.10
2019-03-20T09:57:08.857Z,25.00
2019-03-20T09:59:37.714Z,24.90
2019-03-20T10:02:06.718Z,25.00
2019-03-20T10:04:35.992Z,25.60
2019-03-20T10:07:04.914Z,26.20
2019-03-20T10:09:33.831Z,26.40
2019-03-20T10:12:02.823Z,24.40
2019-03-20T10:14:31.686Z,24.90
2019-03-20T10:17:00.686Z,25.10
2019-03-20T10:19:29.575Z,25.50
2019-03-20T10:21:58.488Z,25.80
2019-03-20T10:24:27.426Z,25.80
2019-03-20T10:26:56.373Z,26.30
2019-03-20T10:29:25.314Z,26.70
2019-03-20T10:31:54.313Z,26.80
2019-03-20T10:34:23.194Z,26.60
2019-03-20T10:36:52.119Z,26.70
2019-03-20T10:39:21.073Z,27.00
2019-03-20T10:41:50.166Z,27.00
2019-03-20T10:44:19.102Z,26.30
2019-03-20T10:46:47.964Z,24.80
2019-03-20T10:49:16.919Z,25.50
2019-03-20T10:51:45.914Z,24.90
2019-03-20T10:54:16.571Z,24.80
2019-03-20T10:56:45.603Z,24.70
2019-03-20T10:59:14.534Z,24.50
2019-03-20T11:01:43.543Z,24.90
2019-03-20T11:04:12.489Z,24.50
2019-03-20T11:06:41.727Z,24.60
2019-03-20T11:09:18.099Z,24.00
2019-03-20T11:11:41.374Z,23.50
2019-03-20T11:14:10.296Z,22.50
2019-03-20T11:16:39.289Z,22.80
2019-03-20T11:19:08.306Z,22.10
2019-03-20T11:21:37.309Z,21.60
2019-03-20T11:24:06.318Z,21.50
2019-03-20T11:26:35.266Z,21.20
2019-03-20T11:29:04.256Z,19.50
2019-03-20T11:31:33.106Z,19.00
2019-03-20T11:34:02.074Z,18.70
2019-03-20T11:36:30.923Z,18.50
2019-03-20T11:38:59.773Z,18.00
2019-03-20T11:41:28.651Z,17.80
2019-03-20T11:43:57.891Z,17.90
2019-03-20T11:46:26.792Z,17.40
2019-03-20T11:48:55.654Z,17.40
2019-03-20T11:51:24.578Z,17.30
2019-03-20T11:53:53.433Z,16.60
2019-03-20T11:56:22.442Z,16.70
2019-03-20T11:58:51.298Z,16.70
2019-03-20T12:01:20.300Z,16.60
2019-03-20T12:03:49.246Z,16.60
2019-03-20T12:06:18.179Z,15.60
2019-03-20T12:08:47.048Z,15.10
2019-03-20T12:11:16.037Z,15.60
2019-03-20T12:13:45.003Z,15.60
2019-03-20T12:16:13.934Z,15.30
2019-03-20T12:18:43.035Z,15.40
2019-03-20T12:21:12.039Z,15.40
2019-03-20T12:23:41.036Z,15.40
2019-03-20T12:26:10.042Z,15.50
2019-03-20T12:28:38.898Z,15.50
2019-03-20T12:31:08.180Z,15.30
2019-03-20T12:33:39.119Z,14.80
2019-03-20T12:36:08.523Z,14.60
2019-03-20T12:38:37.457Z,14.40
2019-03-20T12:41:06.652Z,14.40
2019-03-20T12:43:35.905Z,14.70
2019-03-20T12:46:04.923Z,14.50
2019-03-20T12:48:33.958Z,14.40
2019-03-20T12:51:02.888Z,14.10
2019-03-20T12:53:32.281Z,14.30
2019-03-20T12:56:01.143Z,14.30
2019-03-20T12:58:30.148Z,14.30
2019-03-20T13:00:59.098Z,14.50
2019-03-20T13:03:29.636Z,14.50
2019-03-20T13:05:59.102Z,14.50
2019-03-20T13:08:28.126Z,14.50
2019-03-20T13:10:57.061Z,14.30
2019-03-20T13:13:26.071Z,14.20
2019-03-20T13:15:55.010Z,14.30
2019-03-20T13:18:23.961Z,14.20
2019-03-20T13:20:52.974Z,14.20
2019-03-20T13:23:24.022Z,14.10
2019-03-20T13:25:53.359Z,13.90
2019-03-20T13:28:22.277Z,14.10
2019-03-20T13:30:54.472Z,13.90
2019-03-20T13:33:26.095Z,13.90
2019-03-20T13:35:54.131Z,14.10
2019-03-20T13:38:22.989Z,14.20
2019-03-20T13:40:52.042Z,14.20
2019-03-20T13:43:21.221Z,14.20
2019-03-20T13:45:50.233Z,14.10
2019-03-20T13:48:19.109Z,14.20
2019-03-20T13:50:48.472Z,14.10
2019-03-20T13:53:17.375Z,13.90
2019-03-20T13:55:46.457Z,13.80
2019-03-20T13:58:15.446Z,13.90
2019-03-20T14:00:44.441Z,13.90
2019-03-20T14:03:13.417Z,13.90
2019-03-20T14:05:42.270Z,13.80
2019-03-20T14:08:11.193Z,13.80
2019-03-20T14:10:50.260Z,13.80
2019-03-20T14:13:11.181Z,13.60
2019-03-20T14:15:40.375Z,13.60
2019-03-20T14:18:09.325Z,13.80
2019-03-20T14:20:38.322Z,13.80
2019-03-20T14:23:07.666Z,13.80
2019-03-20T14:25:38.650Z,13.70
2019-03-20T14:28:08.058Z,13.70
2019-03-20T14:30:37.055Z,13.80
2019-03-20T14:33:06.288Z,13.80
2019-03-20T14:35:35.298Z,13.70
2019-03-20T14:38:04.314Z,13.60
2019-03-20T14:40:36.821Z,13.60
2019-03-20T14:43:04.101Z,13.60
2019-03-20T14:45:33.170Z,13.50
2019-03-20T14:48:02.502Z,13.60
2019-03-20T14:50:31.504Z,13.60
2019-03-20T14:53:00.501Z,13.50
2019-03-20T14:55:29.462Z,13.60
2019-03-20T14:57:58.674Z,13.40
2019-03-20T15:00:27.686Z,13.50
2019-03-20T15:02:56.690Z,13.40
2019-03-20T15:05:26.889Z,13.40
2019-03-20T15:07:55.818Z,13.50
2019-03-20T15:10:25.169Z,13.40
2019-03-20T15:12:54.390Z,13.30
2019-03-20T15:15:35.345Z,13.40
2019-03-20T15:18:04.459Z,13.30
2019-03-20T15:20:33.454Z,13.20
2019-03-20T15:23:02.469Z,13.20
2019-03-20T15:25:31.721Z,13.20
2019-03-20T15:28:00.749Z,13.20
2019-03-20T15:30:29.901Z,13.20
2019-03-20T15:32:59.212Z,13.20
2019-03-20T15:35:28.513Z,13.00
2019-03-20T15:37:57.477Z,13.00
2019-03-20T15:40:26.603Z,13.00
2019-03-20T15:42:55.563Z,12.90
2019-03-20T15:45:24.506Z,13.00
2019-03-20T15:47:53.441Z,12.90
2019-03-20T15:50:22.465Z,13.00
2019-03-20T15:52:51.474Z,12.90
2019-03-20T15:55:23.469Z,12.80
2019-03-20T15:57:52.467Z,12.90
2019-03-20T16:00:21.493Z,12.80
2019-03-20T16:02:51.427Z,12.80
2019-03-20T16:05:20.441Z,12.80
2019-03-20T16:07:49.395Z,12.80
2019-03-20T16:10:19.718Z,12.70
2019-03-20T16:12:48.711Z,12.60
2019-03-20T16:15:18.971Z,12.50
2019-03-20T16:17:47.895Z,12.50
2019-03-20T16:20:17.372Z,12.50
2019-03-20T16:22:46.376Z,12.50
2019-03-20T16:25:15.666Z,12.40
2019-03-20T16:27:44.678Z,12.40
2019-03-20T16:30:16.242Z,12.30
2019-03-20T16:32:45.103Z,12.30
2019-03-20T16:35:14.113Z,12.20
2019-03-20T16:37:43.156Z,12.20
2019-03-20T16:40:14.762Z,12.20
2019-03-20T16:42:43.689Z,12.20
2019-03-20T16:45:18.289Z,12.10
2019-03-20T16:47:47.286Z,12.00
2019-03-20T16:50:16.569Z,12.00
2019-03-20T16:52:45.915Z,12.00
2019-03-20T16:55:16.297Z,12.00
2019-03-20T16:57:45.294Z,12.00
2019-03-20T17:00:17.361Z,11.90
2019-03-20T17:02:46.412Z,11.80
2019-03-20T17:05:15.507Z,11.70
2019-03-20T17:07:44.442Z,11.70
2019-03-20T17:10:22.030Z,11.80
2019-03-20T17:12:51.045Z,11.70
2019-03-20T17:15:21.955Z,11.70
2019-03-20T17:17:51.304Z,11.60
2019-03-20T17:20:20.309Z,11.50
2019-03-20T17:22:49.690Z,11.50
2019-03-20T17:25:18.694Z,11.40
2019-03-20T17:27:47.991Z,11.40
2019-03-20T17:30:19.394Z,11.40
2019-03-20T17:32:48.392Z,11.40
2019-03-20T17:35:17.705Z,11.20
2019-03-20T17:37:46.726Z,11.00
2019-03-20T17:40:16.702Z,10.80
2019-03-20T17:42:45.753Z,10.70
2019-03-20T17:45:15.706Z,10.50
2019-03-20T17:47:44.702Z,10.20
2019-03-20T17:50:24.961Z,9.90
2019-03-20T17:52:53.970Z,9.70
2019-03-20T17:55:22.876Z,9.70
2019-03-20T17:57:51.981Z,9.50
2019-03-20T18:00:26.680Z,9.40
2019-03-20T18:02:55.728Z,9.10
2019-03-20T18:05:24.653Z,9.00
2019-03-20T18:07:53.651Z,8.90
2019-03-20T18:10:22.677Z,8.80
2019-03-20T18:12:51.669Z,8.70
2019-03-20T18:15:20.758Z,8.50
2019-03-20T18:17:49.734Z,8.40
2019-03-20T18:20:18.756Z,8.30
2019-03-20T18:22:47.842Z,8.20
2019-03-20T18:25:16.889Z,8.20
2019-03-20T18:27:45.902Z,8.10
2019-03-20T18:30:17.870Z,8.00
2019-03-20T18:32:46.818Z,7.90
2019-03-20T18:35:16.381Z,7.60
2019-03-20T18:37:45.387Z,7.60
2019-03-20T18:40:15.778Z,7.60
2019-03-20T18:42:44.803Z,7.40
2019-03-20T18:45:14.755Z,7.40
2019-03-20T18:47:43.980Z,7.20
2019-03-20T18:50:13.037Z,7.20
2019-03-20T18:52:42.151Z,7.10
2019-03-20T18:55:11.362Z,7.00
2019-03-20T18:57:40.374Z,6.90
2019-03-20T19:00:17.551Z,6.90
2019-03-20T19:02:46.548Z,6.70
2019-03-20T19:05:28.048Z,6.80
2019-03-20T19:07:56.979Z,6.70
2019-03-20T19:10:26.103Z,6.60
2019-03-20T19:12:55.119Z,6.50
2019-03-20T19:15:24.038Z,6.60
2019-03-20T19:17:53.023Z,6.60
2019-03-20T19:20:22.027Z,6.40
2019-03-20T19:22:51.325Z,6.50
2019-03-20T19:25:20.346Z,6.50
2019-03-20T19:27:49.430Z,6.50
2019-03-20T19:30:19.331Z,6.30
2019-03-20T19:32:48.414Z,6.30
2019-03-20T19:35:17.734Z,6.30
2019-03-20T19:37:46.712Z,6.20
2019-03-20T19:40:16.711Z,6.00
2019-03-20T19:42:45.873Z,5.90
2019-03-20T19:45:15.514Z,5.80
2019-03-20T19:47:44.830Z,5.90
2019-03-20T19:50:14.158Z,5.80
2019-03-20T19:52:43.179Z,5.70
2019-03-20T19:55:12.194Z,5.70
2019-03-20T19:57:41.242Z,5.60
2019-03-20T20:00:12.918Z,5.50
2019-03-20T20:02:42.094Z,5.40
2019-03-20T20:05:15.678Z,5.40
2019-03-20T20:07:41.843Z,5.40
2019-03-20T20:10:11.097Z,5.40
2019-03-20T20:12:40.109Z,5.30
2019-03-20T20:15:12.416Z,5.30
2019-03-20T20:17:41.321Z,5.20
2019-03-20T20:20:12.748Z,5.20
2019-03-20T20:22:41.830Z,5.10
2019-03-20T20:25:10.828Z,5.00
2019-03-20T20:27:39.778Z,5.00
2019-03-20T20:30:11.360Z,4.80
2019-03-20T20:32:40.375Z,4.80
2019-03-20T20:35:09.482Z,4.70
2019-03-20T20:37:38.405Z,4.80
2019-03-20T20:40:08.378Z,4.80
2019-03-20T20:42:42.907Z,4.70
2019-03-20T20:45:08.450Z,4.60
2019-03-20T20:47:37.451Z,4.60
2019-03-20T20:50:06.545Z,4.60
2019-03-20T20:52:35.469Z,4.50
2019-03-20T20:55:05.527Z,4.50
2019-03-20T20:57:34.502Z,4.40
2019-03-20T21:00:04.200Z,4.40
2019-03-20T21:02:33.242Z,4.40
2019-03-20T21:05:02.341Z,4.30
2019-03-20T21:07:31.260Z,4.30
2019-03-20T21:10:00.438Z,4.20
2019-03-20T21:12:29.530Z,4.20
2019-03-20T21:14:58.462Z,4.20
2019-03-20T21:18:06.486Z,4.10
2019-03-20T21:20:35.880Z,4.10
2019-03-20T21:23:50.878Z,4.20
2019-03-20T21:26:20.518Z,4.10
2019-03-20T21:29:15.813Z,4.00
2019-03-20T21:31:53.218Z,4.00
2019-03-20T21:34:49.535Z,4.00
2019-03-20T21:38:00.922Z,4.00
2019-03-20T21:40:31.450Z,4.00
2019-03-20T21:43:35.766Z,4.00
2019-03-20T21:46:32.899Z,4.00
2019-03-20T21:49:02.358Z,3.90
2019-03-20T21:51:32.130Z,3.90
2019-03-20T21:54:40.495Z,3.80
2019-03-20T21:57:43.339Z,3.90
2019-03-20T22:01:07.590Z,3.90
2019-03-20T22:03:36.969Z,3.80
2019-03-20T22:06:42.914Z,3.80
2019-03-20T22:09:37.791Z,3.70
2019-03-20T22:12:20.849Z,3.80
2019-03-20T22:14:55.161Z,3.70
2019-03-20T22:18:17.662Z,3.70
2019-03-20T22:21:11.126Z,3.70
2019-03-20T22:24:16.403Z,3.70
2019-03-20T22:27:28.794Z,3.60
2019-03-20T22:29:58.210Z,3.60
2019-03-20T22:33:11.604Z,3.50
2019-03-20T22:36:05.558Z,3.50
2019-03-20T22:39:01.412Z,3.50
2019-03-20T22:41:48.402Z,3.40
2019-03-20T22:44:17.962Z,3.40
2019-03-20T22:47:15.430Z,3.40
2019-03-20T22:50:23.427Z,3.30
2019-03-20T22:53:29.017Z,3.30
2019-03-20T22:56:27.147Z,3.30
2019-03-20T22:58:56.633Z,3.20
2019-03-20T23:01:49.810Z,3.10
2019-03-20T23:04:23.702Z,3.10
2019-03-20T23:06:53.166Z,3.10
2019-03-20T23:09:22.694Z,3.00
2019-03-20T23:11:52.422Z,3.00
2019-03-20T23:14:21.803Z,3.00
2019-03-20T23:16:51.282Z,2.90
2019-03-20T23:19:20.758Z,2.90
2019-03-20T23:21:50.141Z,3.00
2019-03-20T23:24:19.674Z,2.90
2019-03-20T23:26:49.177Z,2.90
2019-03-20T23:29:18.985Z,2.90
2019-03-20T23:31:47.815Z,2.80
2019-03-20T23:34:17.322Z,2.70
2019-03-20T23:36:46.880Z,2.70
2019-03-20T23:39:16.261Z,2.70
2019-03-20T23:41:45.686Z,2.80
2019-03-20T23:44:15.142Z,2.80
2019-03-20T23:46:44.911Z,2.70
2019-03-20T23:49:17.502Z,2.60
2019-03-20T23:51:46.940Z,2.60
2019-03-20T23:54:19.130Z,2.60
2019-03-20T23:56:48.897Z,2.50
2019-03-20T23:59:18.332Z,2.50
